sensor_id;sensor_type;location;lat;lon;timestamp;temperature;humidity
11961;DHT22;6040;49.358;11.140;2023-05-23T00:01:53;15.70;99.90
11961;DHT22;6040;49.358;11.140;2023-05-23T00:04:23;15.70;99.90
11961;DHT22;6040;49.358;11.140;2023-05-23T00:06:51;15.70;99.90
11961;DHT22;6040;49.358;11.140;2023-05-23T00:09:18;15.60;99.90
11961;DHT22;6040;49.358;11.140;2023-05-23T00:11:45;15.60;99.90
11961;DHT22;6040;49.358;11.140;2023-05-23T00:14:14;15.50;99.90
11961;DHT22;6040;49.358;11.140;2023-05-23T00:16:41;15.50;99.90
11961;DHT22;6040;49.358;11.140;2023-05-23T00:19:09;15.50;99.90
11961;DHT22;6040;49.358;11.140;2023-05-23T00:21:36;15.50;99.90
11961;DHT22;6040;49.358;11.140;2023-05-23T00:24:03;15.50;99.90
11961;DHT22;6040;49.358;11.140;2023-05-23T00:26:30;15.40;99.90
11961;DHT22;6040;49.358;11.140;2023-05-23T00:28:58;15.40;99.90
11961;DHT22;6040;49.358;11.140;2023-05-23T00:31:26;15.40;99.90
11961;DHT22;6040;49.358;11.140;2023-05-23T00:33:53;15.30;99.90
11961;DHT22;6040;49.358;11.140;2023-05-23T00:36:20;15.30;99.90
11961;DHT22;6040;49.358;11.140;2023-05-23T00:38:48;15.30;99.90
11961;DHT22;6040;49.358;11.140;2023-05-23T00:41:15;15.20;99.90
11961;DHT22;6040;49.358;11.140;2023-05-23T00:43:43;15.20;99.90
11961;DHT22;6040;49.358;11.140;2023-05-23T00:46:10;15.10;99.90
11961;DHT22;6040;49.358;11.140;2023-05-23T00:48:38;15.00;99.90
11961;DHT22;6040;49.358;11.140;2023-05-23T00:51:05;15.00;99.90
11961;DHT22;6040;49.358;11.140;2023-05-23T00:53:32;15.00;99.90
11961;DHT22;6040;49.358;11.140;2023-05-23T00:56:01;15.00;99.90
11961;DHT22;6040;49.358;11.140;2023-05-23T00:58:28;15.00;99.90
11961;DHT22;6040;49.358;11.140;2023-05-23T01:00:55;15.00;99.90
11961;DHT22;6040;49.358;11.140;2023-05-23T01:03:22;15.00;99.90
11961;DHT22;6040;49.358;11.140;2023-05-23T01:05:54;15.10;99.90
11961;DHT22;6040;49.358;11.140;2023-05-23T01:08:21;15.00;99.90
11961;DHT22;6040;49.358;11.140;2023-05-23T01:10:48;15.00;99.90
11961;DHT22;6040;49.358;11.140;2023-05-23T01:13:21;14.80;99.90
11961;DHT22;6040;49.358;11.140;2023-05-23T01:15:53;15.00;99.90
11961;DHT22;6040;49.358;11.140;2023-05-23T01:18:25;15.00;99.90
11961;DHT22;6040;49.358;11.140;2023-05-23T01:21:00;14.90;99.90
11961;DHT22;6040;49.358;11.140;2023-05-23T01:23:40;14.90;99.90
11961;DHT22;6040;49.358;11.140;2023-05-23T01:26:18;14.80;99.90
11961;DHT22;6040;49.358;11.140;2023-05-23T01:28:55;14.80;99.90
11961;DHT22;6040;49.358;11.140;2023-05-23T01:31:26;14.80;99.90
11961;DHT22;6040;49.358;11.140;2023-05-23T01:33:55;14.80;99.90
11961;DHT22;6040;49.358;11.140;2023-05-23T01:36:22;14.70;99.90
11961;DHT22;6040;49.358;11.140;2023-05-23T01:38:48;14.70;99.90
11961;DHT22;6040;49.358;11.140;2023-05-23T01:41:15;14.70;99.90
11961;DHT22;6040;49.358;11.140;2023-05-23T01:43:42;14.70;99.90
11961;DHT22;6040;49.358;11.140;2023-05-23T01:46:10;14.60;99.90
11961;DHT22;6040;49.358;11.140;2023-05-23T01:48:38;15.20;99.90
11961;DHT22;6040;49.358;11.140;2023-05-23T01:51:07;14.40;99.90
11961;DHT22;6040;49.358;11.140;2023-05-23T01:53:34;14.60;99.90
11961;DHT22;6040;49.358;11.140;2023-05-23T01:56:02;14.60;99.90
11961;DHT22;6040;49.358;11.140;2023-05-23T01:58:29;14.60;99.90
11961;DHT22;6040;49.358;11.140;2023-05-23T02:00:56;14.60;99.90
11961;DHT22;6040;49.358;11.140;2023-05-23T02:03:24;14.30;99.90
11961;DHT22;6040;49.358;11.140;2023-05-23T02:05:51;14.60;99.90
11961;DHT22;6040;49.358;11.140;2023-05-23T02:08:18;14.60;99.90
11961;DHT22;6040;49.358;11.140;2023-05-23T02:10:45;15.10;99.90
11961;DHT22;6040;49.358;11.140;2023-05-23T02:13:11;14.60;99.90
11961;DHT22;6040;49.358;11.140;2023-05-23T02:15:38;14.60;99.90
11961;DHT22;6040;49.358;11.140;2023-05-23T02:18:05;14.60;99.90
11961;DHT22;6040;49.358;11.140;2023-05-23T02:20:33;14.70;99.90
11961;DHT22;6040;49.358;11.140;2023-05-23T02:23:00;14.70;99.90
11961;DHT22;6040;49.358;11.140;2023-05-23T02:25:27;14.70;99.90
11961;DHT22;6040;49.358;11.140;2023-05-23T02:27:54;16.10;99.90
11961;DHT22;6040;49.358;11.140;2023-05-23T02:30:20;14.80;99.90
11961;DHT22;6040;49.358;11.140;2023-05-23T02:32:47;14.80;99.90
11961;DHT22;6040;49.358;11.140;2023-05-23T02:35:14;14.80;99.90
11961;DHT22;6040;49.358;11.140;2023-05-23T02:37:42;14.80;99.90
11961;DHT22;6040;49.358;11.140;2023-05-23T02:40:09;14.80;99.90
11961;DHT22;6040;49.358;11.140;2023-05-23T02:42:36;14.80;99.90
11961;DHT22;6040;49.358;11.140;2023-05-23T02:45:04;14.80;99.90
11961;DHT22;6040;49.358;11.140;2023-05-23T02:47:31;14.70;99.90
11961;DHT22;6040;49.358;11.140;2023-05-23T02:49:57;14.70;99.90
11961;DHT22;6040;49.358;11.140;2023-05-23T02:52:24;14.70;99.90
11961;DHT22;6040;49.358;11.140;2023-05-23T02:54:52;14.70;99.90
11961;DHT22;6040;49.358;11.140;2023-05-23T02:57:19;14.70;99.90
11961;DHT22;6040;49.358;11.140;2023-05-23T02:59:46;14.70;99.90
11961;DHT22;6040;49.358;11.140;2023-05-23T03:02:13;14.70;99.90
11961;DHT22;6040;49.358;11.140;2023-05-23T03:04:40;14.80;99.90
11961;DHT22;6040;49.358;11.140;2023-05-23T03:07:06;14.80;99.90
11961;DHT22;6040;49.358;11.140;2023-05-23T03:09:35;14.80;99.90
11961;DHT22;6040;49.358;11.140;2023-05-23T03:12:04;14.90;99.90
11961;DHT22;6040;49.358;11.140;2023-05-23T03:14:31;14.90;99.90
11961;DHT22;6040;49.358;11.140;2023-05-23T03:16:58;14.90;99.90
11961;DHT22;6040;49.358;11.140;2023-05-23T03:19:25;14.90;99.90
11961;DHT22;6040;49.358;11.140;2023-05-23T03:21:51;14.90;99.90
11961;DHT22;6040;49.358;11.140;2023-05-23T03:24:18;14.90;99.90
11961;DHT22;6040;49.358;11.140;2023-05-23T03:26:45;14.90;99.90
11961;DHT22;6040;49.358;11.140;2023-05-23T03:29:13;14.90;99.90
11961;DHT22;6040;49.358;11.140;2023-05-23T03:31:40;15.90;99.90
11961;DHT22;6040;49.358;11.140;2023-05-23T03:34:07;14.90;99.90
11961;DHT22;6040;49.358;11.140;2023-05-23T03:36:34;15.50;99.90
11961;DHT22;6040;49.358;11.140;2023-05-23T03:39:03;14.80;99.90
11961;DHT22;6040;49.358;11.140;2023-05-23T03:41:30;14.80;99.90
11961;DHT22;6040;49.358;11.140;2023-05-23T03:43:57;15.50;99.90
11961;DHT22;6040;49.358;11.140;2023-05-23T03:46:26;14.70;99.90
11961;DHT22;6040;49.358;11.140;2023-05-23T03:48:53;14.80;99.90
11961;DHT22;6040;49.358;11.140;2023-05-23T03:51:20;15.40;99.90
11961;DHT22;6040;49.358;11.140;2023-05-23T03:53:47;14.80;99.90
11961;DHT22;6040;49.358;11.140;2023-05-23T03:56:13;14.80;99.90
11961;DHT22;6040;49.358;11.140;2023-05-23T03:58:40;14.90;99.90
11961;DHT22;6040;49.358;11.140;2023-05-23T04:01:07;15.00;99.90
11961;DHT22;6040;49.358;11.140;2023-05-23T04:03:36;15.10;99.90
11961;DHT22;6040;49.358;11.140;2023-05-23T04:06:03;15.10;99.90
11961;DHT22;6040;49.358;11.140;2023-05-23T04:08:29;15.10;99.90
11961;DHT22;6040;49.358;11.140;2023-05-23T04:10:58;15.20;99.90
11961;DHT22;6040;49.358;11.140;2023-05-23T04:13:26;15.20;99.90
11961;DHT22;6040;49.358;11.140;2023-05-23T04:15:53;15.20;99.90
11961;DHT22;6040;49.358;11.140;2023-05-23T04:18:21;15.30;99.90
11961;DHT22;6040;49.358;11.140;2023-05-23T04:20:49;15.30;99.90
11961;DHT22;6040;49.358;11.140;2023-05-23T04:23:16;15.40;99.90
11961;DHT22;6040;49.358;11.140;2023-05-23T04:25:43;15.40;99.90
11961;DHT22;6040;49.358;11.140;2023-05-23T04:28:10;15.50;99.90
11961;DHT22;6040;49.358;11.140;2023-05-23T04:30:37;15.50;99.90
11961;DHT22;6040;49.358;11.140;2023-05-23T04:33:04;15.60;99.90
11961;DHT22;6040;49.358;11.140;2023-05-23T04:35:31;15.70;99.90
11961;DHT22;6040;49.358;11.140;2023-05-23T04:38:00;15.80;99.90
11961;DHT22;6040;49.358;11.140;2023-05-23T04:40:28;15.80;99.90
11961;DHT22;6040;49.358;11.140;2023-05-23T04:42:56;15.90;99.90
11961;DHT22;6040;49.358;11.140;2023-05-23T04:45:23;16.10;99.90
11961;DHT22;6040;49.358;11.140;2023-05-23T04:47:51;16.20;99.90
11961;DHT22;6040;49.358;11.140;2023-05-23T04:50:21;16.30;99.90
11961;DHT22;6040;49.358;11.140;2023-05-23T04:52:49;16.30;99.90
11961;DHT22;6040;49.358;11.140;2023-05-23T04:55:17;16.40;99.90
11961;DHT22;6040;49.358;11.140;2023-05-23T04:57:45;16.40;99.90
11961;DHT22;6040;49.358;11.140;2023-05-23T05:00:12;16.40;99.90
11961;DHT22;6040;49.358;11.140;2023-05-23T05:02:40;16.50;99.90
11961;DHT22;6040;49.358;11.140;2023-05-23T05:05:08;16.50;99.90
11961;DHT22;6040;49.358;11.140;2023-05-23T05:07:35;16.40;99.90
11961;DHT22;6040;49.358;11.140;2023-05-23T05:10:02;16.50;99.90
11961;DHT22;6040;49.358;11.140;2023-05-23T05:12:30;16.50;99.90
11961;DHT22;6040;49.358;11.140;2023-05-23T05:14:57;16.50;99.90
11961;DHT22;6040;49.358;11.140;2023-05-23T05:17:24;16.60;99.90
11961;DHT22;6040;49.358;11.140;2023-05-23T05:19:51;16.80;99.90
11961;DHT22;6040;49.358;11.140;2023-05-23T05:22:17;16.90;99.90
11961;DHT22;6040;49.358;11.140;2023-05-23T05:24:44;17.00;99.90
11961;DHT22;6040;49.358;11.140;2023-05-23T05:27:11;17.10;99.90
11961;DHT22;6040;49.358;11.140;2023-05-23T05:29:39;17.60;99.90
11961;DHT22;6040;49.358;11.140;2023-05-23T05:32:06;18.20;99.90
11961;DHT22;6040;49.358;11.140;2023-05-23T05:34:34;19.60;99.90
11961;DHT22;6040;49.358;11.140;2023-05-23T05:37:02;21.20;99.90
11961;DHT22;6040;49.358;11.140;2023-05-23T05:39:29;22.70;99.90
11961;DHT22;6040;49.358;11.140;2023-05-23T05:41:56;23.40;99.90
11961;DHT22;6040;49.358;11.140;2023-05-23T05:44:23;24.30;99.10
11961;DHT22;6040;49.358;11.140;2023-05-23T05:46:52;25.10;97.20
11961;DHT22;6040;49.358;11.140;2023-05-23T05:49:19;24.50;97.20
11961;DHT22;6040;49.358;11.140;2023-05-23T05:51:46;24.20;97.60
11961;DHT22;6040;49.358;11.140;2023-05-23T05:54:13;23.30;98.40
11961;DHT22;6040;49.358;11.140;2023-05-23T05:56:40;22.70;99.80
11961;DHT22;6040;49.358;11.140;2023-05-23T05:59:07;22.40;99.90
11961;DHT22;6040;49.358;11.140;2023-05-23T06:01:34;22.10;99.90
11961;DHT22;6040;49.358;11.140;2023-05-23T06:04:03;21.90;99.90
11961;DHT22;6040;49.358;11.140;2023-05-23T06:06:30;21.50;99.90
11961;DHT22;6040;49.358;11.140;2023-05-23T06:08:58;21.80;99.90
11961;DHT22;6040;49.358;11.140;2023-05-23T06:11:25;23.50;99.90
11961;DHT22;6040;49.358;11.140;2023-05-23T06:13:52;25.00;97.20
11961;DHT22;6040;49.358;11.140;2023-05-23T06:16:19;26.10;95.40
11961;DHT22;6040;49.358;11.140;2023-05-23T06:18:45;27.10;93.80
11961;DHT22;6040;49.358;11.140;2023-05-23T06:21:14;27.50;92.50
11961;DHT22;6040;49.358;11.140;2023-05-23T06:23:41;27.50;92.20
11961;DHT22;6040;49.358;11.140;2023-05-23T06:26:07;28.30;91.20
11961;DHT22;6040;49.358;11.140;2023-05-23T06:28:36;28.50;90.90
11961;DHT22;6040;49.358;11.140;2023-05-23T06:31:03;29.20;89.80
11961;DHT22;6040;49.358;11.140;2023-05-23T06:33:30;29.10;88.80
11961;DHT22;6040;49.358;11.140;2023-05-23T06:35:57;29.40;87.90
11961;DHT22;6040;49.358;11.140;2023-05-23T06:38:28;30.00;87.80
11961;DHT22;6040;49.358;11.140;2023-05-23T06:40:54;30.10;85.40
11961;DHT22;6040;49.358;11.140;2023-05-23T06:43:21;29.10;85.00
11961;DHT22;6040;49.358;11.140;2023-05-23T06:45:48;28.80;87.10
11961;DHT22;6040;49.358;11.140;2023-05-23T06:48:15;28.20;89.00
11961;DHT22;6040;49.358;11.140;2023-05-23T06:50:42;27.60;90.00
11961;DHT22;6040;49.358;11.140;2023-05-23T06:53:09;26.00;91.70
11961;DHT22;6040;49.358;11.140;2023-05-23T06:55:37;25.10;93.50
11961;DHT22;6040;49.358;11.140;2023-05-23T06:58:04;24.40;94.30
11961;DHT22;6040;49.358;11.140;2023-05-23T07:00:31;24.00;95.30
11961;DHT22;6040;49.358;11.140;2023-05-23T07:02:58;23.80;95.80
11961;DHT22;6040;49.358;11.140;2023-05-23T07:05:26;23.40;96.20
11961;DHT22;6040;49.358;11.140;2023-05-23T07:07:53;23.20;96.20
11961;DHT22;6040;49.358;11.140;2023-05-23T07:10:20;22.80;97.20
11961;DHT22;6040;49.358;11.140;2023-05-23T07:12:48;22.70;97.50
11961;DHT22;6040;49.358;11.140;2023-05-23T07:15:15;22.40;97.70
11961;DHT22;6040;49.358;11.140;2023-05-23T07:17:42;22.40;98.10
11961;DHT22;6040;49.358;11.140;2023-05-23T07:20:10;22.60;98.40
11961;DHT22;6040;49.358;11.140;2023-05-23T07:22:37;22.70;97.80
11961;DHT22;6040;49.358;11.140;2023-05-23T07:25:04;22.60;98.10
11961;DHT22;6040;49.358;11.140;2023-05-23T07:27:32;22.60;98.70
11961;DHT22;6040;49.358;11.140;2023-05-23T07:30:00;22.40;98.90
11961;DHT22;6040;49.358;11.140;2023-05-23T07:32:27;22.00;98.80
11961;DHT22;6040;49.358;11.140;2023-05-23T07:34:54;21.70;99.30
11961;DHT22;6040;49.358;11.140;2023-05-23T07:37:21;21.40;99.70
11961;DHT22;6040;49.358;11.140;2023-05-23T07:39:47;21.30;99.90
11961;DHT22;6040;49.358;11.140;2023-05-23T07:42:14;21.20;99.90
11961;DHT22;6040;49.358;11.140;2023-05-23T07:44:41;21.20;99.90
11961;DHT22;6040;49.358;11.140;2023-05-23T07:47:09;21.10;99.90
11961;DHT22;6040;49.358;11.140;2023-05-23T07:49:36;20.90;99.90
11961;DHT22;6040;49.358;11.140;2023-05-23T07:52:03;20.90;99.90
11961;DHT22;6040;49.358;11.140;2023-05-23T07:54:31;20.70;99.90
11961;DHT22;6040;49.358;11.140;2023-05-23T07:56:58;20.60;99.90
11961;DHT22;6040;49.358;11.140;2023-05-23T07:59:25;20.50;99.90
11961;DHT22;6040;49.358;11.140;2023-05-23T08:01:51;20.40;99.90
11961;DHT22;6040;49.358;11.140;2023-05-23T08:04:20;20.40;99.90
11961;DHT22;6040;49.358;11.140;2023-05-23T08:06:46;20.40;99.90
11961;DHT22;6040;49.358;11.140;2023-05-23T08:09:13;20.30;99.90
11961;DHT22;6040;49.358;11.140;2023-05-23T08:11:40;20.30;99.90
11961;DHT22;6040;49.358;11.140;2023-05-23T08:14:07;20.20;99.90
11961;DHT22;6040;49.358;11.140;2023-05-23T08:16:34;20.20;99.90
11961;DHT22;6040;49.358;11.140;2023-05-23T08:19:02;20.10;99.90
11961;DHT22;6040;49.358;11.140;2023-05-23T08:21:30;20.20;99.90
11961;DHT22;6040;49.358;11.140;2023-05-23T08:23:58;20.20;99.90
11961;DHT22;6040;49.358;11.140;2023-05-23T08:26:25;20.20;99.90
11961;DHT22;6040;49.358;11.140;2023-05-23T08:28:52;20.30;99.90
11961;DHT22;6040;49.358;11.140;2023-05-23T08:31:19;20.40;99.90
11961;DHT22;6040;49.358;11.140;2023-05-23T08:33:46;20.70;99.90
11961;DHT22;6040;49.358;11.140;2023-05-23T08:36:13;21.10;99.90
11961;DHT22;6040;49.358;11.140;2023-05-23T08:38:41;21.30;99.90
11961;DHT22;6040;49.358;11.140;2023-05-23T08:41:12;21.40;99.90
11961;DHT22;6040;49.358;11.140;2023-05-23T08:43:41;21.50;99.80
11961;DHT22;6040;49.358;11.140;2023-05-23T08:46:08;21.80;99.70
11961;DHT22;6040;49.358;11.140;2023-05-23T08:48:37;22.10;99.60
11961;DHT22;6040;49.358;11.140;2023-05-23T08:51:06;22.30;99.00
11961;DHT22;6040;49.358;11.140;2023-05-23T08:53:35;22.40;97.90
11961;DHT22;6040;49.358;11.140;2023-05-23T08:56:05;22.10;97.50
11961;DHT22;6040;49.358;11.140;2023-05-23T08:58:33;22.00;97.10
11961;DHT22;6040;49.358;11.140;2023-05-23T09:01:01;21.80;97.70
11961;DHT22;6040;49.358;11.140;2023-05-23T09:03:28;22.20;97.90
11961;DHT22;6040;49.358;11.140;2023-05-23T09:05:55;22.60;97.00
11961;DHT22;6040;49.358;11.140;2023-05-23T09:08:23;22.80;96.00
11961;DHT22;6040;49.358;11.140;2023-05-23T09:10:50;23.00;95.90
11961;DHT22;6040;49.358;11.140;2023-05-23T09:13:18;23.00;95.50
11961;DHT22;6040;49.358;11.140;2023-05-23T09:16:01;23.00;95.60
11961;DHT22;6040;49.358;11.140;2023-05-23T09:18:33;22.90;96.20
11961;DHT22;6040;49.358;11.140;2023-05-23T09:21:01;22.80;95.90
11961;DHT22;6040;49.358;11.140;2023-05-23T09:23:31;22.90;96.20
11961;DHT22;6040;49.358;11.140;2023-05-23T09:26:01;23.00;96.90
11961;DHT22;6040;49.358;11.140;2023-05-23T09:28:30;22.70;96.00
11961;DHT22;6040;49.358;11.140;2023-05-23T09:30:58;22.50;95.80
11961;DHT22;6040;49.358;11.140;2023-05-23T09:33:33;22.30;96.80
11961;DHT22;6040;49.358;11.140;2023-05-23T09:36:02;22.60;96.60
11961;DHT22;6040;49.358;11.140;2023-05-23T09:38:29;22.70;96.00
11961;DHT22;6040;49.358;11.140;2023-05-23T09:40:56;22.80;96.30
11961;DHT22;6040;49.358;11.140;2023-05-23T09:43:24;22.70;96.20
11961;DHT22;6040;49.358;11.140;2023-05-23T09:45:53;22.70;96.00
11961;DHT22;6040;49.358;11.140;2023-05-23T09:48:27;22.60;96.40
11961;DHT22;6040;49.358;11.140;2023-05-23T09:50:55;22.40;96.30
11961;DHT22;6040;49.358;11.140;2023-05-23T09:53:22;22.60;96.40
11961;DHT22;6040;49.358;11.140;2023-05-23T09:55:50;22.90;96.00
11961;DHT22;6040;49.358;11.140;2023-05-23T09:58:18;23.10;95.80
11961;DHT22;6040;49.358;11.140;2023-05-23T10:00:46;23.50;95.50
11961;DHT22;6040;49.358;11.140;2023-05-23T10:03:16;23.90;95.00
11961;DHT22;6040;49.358;11.140;2023-05-23T10:05:48;24.10;94.20
11961;DHT22;6040;49.358;11.140;2023-05-23T10:08:18;24.20;94.50
11961;DHT22;6040;49.358;11.140;2023-05-23T10:14:01;24.20;94.10
11961;DHT22;6040;49.358;11.140;2023-05-23T10:16:36;24.70;93.10
11961;DHT22;6040;49.358;11.140;2023-05-23T10:19:12;24.50;92.70
11961;DHT22;6040;49.358;11.140;2023-05-23T10:21:46;24.20;93.30
11961;DHT22;6040;49.358;11.140;2023-05-23T10:24:15;24.00;93.10
11961;DHT22;6040;49.358;11.140;2023-05-23T10:26:44;24.00;93.40
11961;DHT22;6040;49.358;11.140;2023-05-23T10:29:11;24.20;92.50
11961;DHT22;6040;49.358;11.140;2023-05-23T10:31:39;24.00;92.30
11961;DHT22;6040;49.358;11.140;2023-05-23T10:34:14;23.80;92.60
11961;DHT22;6040;49.358;11.140;2023-05-23T10:36:49;24.00;93.00
11961;DHT22;6040;49.358;11.140;2023-05-23T10:39:24;23.80;93.50
11961;DHT22;6040;49.358;11.140;2023-05-23T10:41:57;23.60;93.00
11961;DHT22;6040;49.358;11.140;2023-05-23T10:44:28;23.60;93.00
11961;DHT22;6040;49.358;11.140;2023-05-23T10:46:56;23.60;93.40
11961;DHT22;6040;49.358;11.140;2023-05-23T10:49:41;23.60;93.50
11961;DHT22;6040;49.358;11.140;2023-05-23T10:52:09;23.90;93.20
11961;DHT22;6040;49.358;11.140;2023-05-23T10:54:41;24.10;93.70
11961;DHT22;6040;49.358;11.140;2023-05-23T10:57:09;24.20;92.40
11961;DHT22;6040;49.358;11.140;2023-05-23T10:59:37;24.10;91.80
11961;DHT22;6040;49.358;11.140;2023-05-23T11:02:08;23.80;92.10
11961;DHT22;6040;49.358;11.140;2023-05-23T11:04:39;23.80;92.40
11961;DHT22;6040;49.358;11.140;2023-05-23T11:07:29;24.20;93.30
11961;DHT22;6040;49.358;11.140;2023-05-23T11:10:03;24.30;91.70
11961;DHT22;6040;49.358;11.140;2023-05-23T11:12:37;23.90;91.50
11961;DHT22;6040;49.358;11.140;2023-05-23T11:15:19;23.70;91.70
11961;DHT22;6040;49.358;11.140;2023-05-23T11:17:51;23.50;91.70
11961;DHT22;6040;49.358;11.140;2023-05-23T11:20:22;23.50;92.20
11961;DHT22;6040;49.358;11.140;2023-05-23T11:22:58;23.80;92.10
11961;DHT22;6040;49.358;11.140;2023-05-23T11:25:39;23.80;91.10
11961;DHT22;6040;49.358;11.140;2023-05-23T11:28:08;24.00;91.70
11961;DHT22;6040;49.358;11.140;2023-05-23T11:30:35;24.00;91.30
11961;DHT22;6040;49.358;11.140;2023-05-23T11:33:06;24.10;91.50
11961;DHT22;6040;49.358;11.140;2023-05-23T11:35:37;23.90;91.00
11961;DHT22;6040;49.358;11.140;2023-05-23T11:38:04;23.80;91.00
11961;DHT22;6040;49.358;11.140;2023-05-23T11:40:32;23.80;91.60
11961;DHT22;6040;49.358;11.140;2023-05-23T11:43:01;23.80;91.10
11961;DHT22;6040;49.358;11.140;2023-05-23T11:45:29;24.20;91.20
11961;DHT22;6040;49.358;11.140;2023-05-23T11:47:56;24.20;90.20
11961;DHT22;6040;49.358;11.140;2023-05-23T11:50:23;24.20;90.40
11961;DHT22;6040;49.358;11.140;2023-05-23T11:52:53;24.10;90.80
11961;DHT22;6040;49.358;11.140;2023-05-23T11:55:21;24.20;90.50
11961;DHT22;6040;49.358;11.140;2023-05-23T11:57:48;24.40;90.40
11961;DHT22;6040;49.358;11.140;2023-05-23T12:00:16;24.30;90.00
11961;DHT22;6040;49.358;11.140;2023-05-23T12:02:44;24.80;89.80
11961;DHT22;6040;49.358;11.140;2023-05-23T12:05:13;24.80;88.50
11961;DHT22;6040;49.358;11.140;2023-05-23T12:07:40;24.70;88.40
11961;DHT22;6040;49.358;11.140;2023-05-23T12:10:10;24.00;88.70
11961;DHT22;6040;49.358;11.140;2023-05-23T12:12:40;23.90;89.90
11961;DHT22;6040;49.358;11.140;2023-05-23T12:15:08;24.30;90.50
11961;DHT22;6040;49.358;11.140;2023-05-23T12:17:35;24.40;89.70
11961;DHT22;6040;49.358;11.140;2023-05-23T12:20:03;24.20;89.70
11961;DHT22;6040;49.358;11.140;2023-05-23T12:22:30;23.80;89.80
11961;DHT22;6040;49.358;11.140;2023-05-23T12:24:57;23.80;90.40
11961;DHT22;6040;49.358;11.140;2023-05-23T12:27:30;23.60;90.60
11961;DHT22;6040;49.358;11.140;2023-05-23T12:30:05;23.30;90.60
11961;DHT22;6040;49.358;11.140;2023-05-23T12:32:34;23.40;91.30
11961;DHT22;6040;49.358;11.140;2023-05-23T12:35:02;23.20;91.10
11961;DHT22;6040;49.358;11.140;2023-05-23T12:37:30;23.40;91.20
11961;DHT22;6040;49.358;11.140;2023-05-23T12:39:56;22.90;90.70
11961;DHT22;6040;49.358;11.140;2023-05-23T12:42:23;23.00;91.10
11961;DHT22;6040;49.358;11.140;2023-05-23T12:44:52;23.10;91.80
11961;DHT22;6040;49.358;11.140;2023-05-23T12:47:19;22.90;91.00
11961;DHT22;6040;49.358;11.140;2023-05-23T12:49:46;22.80;91.40
11961;DHT22;6040;49.358;11.140;2023-05-23T12:52:13;22.90;91.90
11961;DHT22;6040;49.358;11.140;2023-05-23T12:54:40;22.90;91.10
11961;DHT22;6040;49.358;11.140;2023-05-23T12:57:07;22.90;91.20
11961;DHT22;6040;49.358;11.140;2023-05-23T12:59:34;22.80;91.60
11961;DHT22;6040;49.358;11.140;2023-05-23T13:02:02;22.50;92.10
11961;DHT22;6040;49.358;11.140;2023-05-23T13:04:29;22.40;91.80
11961;DHT22;6040;49.358;11.140;2023-05-23T13:06:55;22.10;91.80
11961;DHT22;6040;49.358;11.140;2023-05-23T13:09:22;22.10;92.20
11961;DHT22;6040;49.358;11.140;2023-05-23T13:11:49;22.00;92.60
11961;DHT22;6040;49.358;11.140;2023-05-23T13:14:16;22.00;92.40
11961;DHT22;6040;49.358;11.140;2023-05-23T13:16:43;21.90;92.50
11961;DHT22;6040;49.358;11.140;2023-05-23T13:19:11;21.70;92.60
11961;DHT22;6040;49.358;11.140;2023-05-23T13:21:38;21.50;93.20
11961;DHT22;6040;49.358;11.140;2023-05-23T13:24:06;21.40;93.50
11961;DHT22;6040;49.358;11.140;2023-05-23T13:26:33;21.30;94.30
11961;DHT22;6040;49.358;11.140;2023-05-23T13:29:00;21.20;93.90
11961;DHT22;6040;49.358;11.140;2023-05-23T13:31:27;21.20;94.20
11961;DHT22;6040;49.358;11.140;2023-05-23T13:33:54;21.40;94.80
11961;DHT22;6040;49.358;11.140;2023-05-23T13:36:22;21.50;93.50
11961;DHT22;6040;49.358;11.140;2023-05-23T13:38:49;21.20;93.00
11961;DHT22;6040;49.358;11.140;2023-05-23T13:41:16;21.10;93.60
11961;DHT22;6040;49.358;11.140;2023-05-23T13:43:44;21.00;94.10
11961;DHT22;6040;49.358;11.140;2023-05-23T13:46:11;21.10;94.30
11961;DHT22;6040;49.358;11.140;2023-05-23T13:48:38;21.20;94.10
11961;DHT22;6040;49.358;11.140;2023-05-23T13:51:05;21.20;94.00
11961;DHT22;6040;49.358;11.140;2023-05-23T13:53:33;21.40;94.10
11961;DHT22;6040;49.358;11.140;2023-05-23T13:56:00;21.20;93.80
11961;DHT22;6040;49.358;11.140;2023-05-23T13:58:27;21.20;94.10
11961;DHT22;6040;49.358;11.140;2023-05-23T14:00:54;21.20;94.10
11961;DHT22;6040;49.358;11.140;2023-05-23T14:03:21;21.20;94.10
11961;DHT22;6040;49.358;11.140;2023-05-23T14:05:49;21.20;94.00
11961;DHT22;6040;49.358;11.140;2023-05-23T14:08:15;21.10;94.20
11961;DHT22;6040;49.358;11.140;2023-05-23T14:10:44;21.10;94.30
11961;DHT22;6040;49.358;11.140;2023-05-23T14:13:10;21.10;94.60
11961;DHT22;6040;49.358;11.140;2023-05-23T14:15:37;21.00;94.60
11961;DHT22;6040;49.358;11.140;2023-05-23T14:18:06;21.10;94.20
11961;DHT22;6040;49.358;11.140;2023-05-23T14:20:33;21.30;95.10
11961;DHT22;6040;49.358;11.140;2023-05-23T14:23:00;21.30;95.10
11961;DHT22;6040;49.358;11.140;2023-05-23T14:25:27;21.40;94.30
11961;DHT22;6040;49.358;11.140;2023-05-23T14:27:56;21.50;94.20
11961;DHT22;6040;49.358;11.140;2023-05-23T14:30:23;21.60;94.30
11961;DHT22;6040;49.358;11.140;2023-05-23T14:32:50;21.70;93.70
11961;DHT22;6040;49.358;11.140;2023-05-23T14:35:18;21.70;94.00
11961;DHT22;6040;49.358;11.140;2023-05-23T14:37:47;21.60;93.70
11961;DHT22;6040;49.358;11.140;2023-05-23T14:40:14;21.30;93.70
11961;DHT22;6040;49.358;11.140;2023-05-23T14:42:41;21.30;94.60
11961;DHT22;6040;49.358;11.140;2023-05-23T14:45:10;21.30;94.40
11961;DHT22;6040;49.358;11.140;2023-05-23T14:47:37;21.20;94.50
11961;DHT22;6040;49.358;11.140;2023-05-23T14:50:05;21.10;94.60
11961;DHT22;6040;49.358;11.140;2023-05-23T14:52:32;20.90;94.40
11961;DHT22;6040;49.358;11.140;2023-05-23T14:54:59;21.00;94.40
11961;DHT22;6040;49.358;11.140;2023-05-23T14:57:26;21.00;94.40
11961;DHT22;6040;49.358;11.140;2023-05-23T14:59:53;21.00;94.70
11961;DHT22;6040;49.358;11.140;2023-05-23T15:02:21;21.20;94.80
11961;DHT22;6040;49.358;11.140;2023-05-23T15:04:48;21.10;94.60
11961;DHT22;6040;49.358;11.140;2023-05-23T15:07:15;21.20;94.70
11961;DHT22;6040;49.358;11.140;2023-05-23T15:09:42;21.40;94.90
11961;DHT22;6040;49.358;11.140;2023-05-23T15:12:10;21.70;94.60
11961;DHT22;6040;49.358;11.140;2023-05-23T15:14:38;21.90;93.40
11961;DHT22;6040;49.358;11.140;2023-05-23T15:17:04;21.70;93.20
11961;DHT22;6040;49.358;11.140;2023-05-23T15:19:35;21.40;93.40
11961;DHT22;6040;49.358;11.140;2023-05-23T15:22:04;21.40;93.60
11961;DHT22;6040;49.358;11.140;2023-05-23T15:24:31;21.40;93.70
11961;DHT22;6040;49.358;11.140;2023-05-23T15:26:57;21.30;93.90
11961;DHT22;6040;49.358;11.140;2023-05-23T15:29:24;21.20;93.80
11961;DHT22;6040;49.358;11.140;2023-05-23T15:31:51;21.00;94.40
11961;DHT22;6040;49.358;11.140;2023-05-23T15:34:19;21.10;94.20
11961;DHT22;6040;49.358;11.140;2023-05-23T15:36:47;21.00;94.50
11961;DHT22;6040;49.358;11.140;2023-05-23T15:39:15;21.00;94.20